ブエノスアイレス/エセイサ の空港の天気 - METARとTAF

エセイサ国際空港 ( SAEZ / EZE ) - アルゼンチン ブエノスアイレス州、Ezeiza
飛行場実況気象(Metar)
観測時間09/20 18:00 ART (09/20 21:00 UTC)
風向・風速北北東 4m/s
視程10km以上
天気現象
なし
気温20℃
湿度43%
気圧1014hPa
METARSAEZ 202100Z 03008KT CAVOK 20/07 Q1014 NOSIG
過去の天気等 Google飛行場航空写真 Wunderground天気予報

過去48時間のMETAR

飛行場予報(TAF)
発表時間: 9/20 14:00 ART (9/20 17:00 UTC)
予報対象時間: 20日15時 ART ~ 21日15時 ART
風向・風速北北東 5m/s
視程10km以上
なし
21日4時 ART ~ 21日5時 ART に徐々に
風向・風速北北西 5m/s
TAF SAEZ 201700Z 2018/2118 02010KT CAVOK TX23/2019Z TN10/2110Z
BECMG 2107/2108 34010KT